»·PEaware :: N102KK KBUR-KLAS

N102KK :: KBUR-KLAS

FLIGHT INFORMATION

Flight Status: Arrived
Operator: Privately registered:
United States
More flights under this callsign
Pilot: Marnix T. (32373)
Aircraft: CESSNA 172 SKYHAWK
(C172)
More flights by this aircraft type
Origin: KBUR Bob Hope-Burbank
United States
Destination: KLAS McCarran Intl
United States
More flights between these airports :: More routes between these airports
Route: +VNY3 DAG CRESO4
File this flight plan on PilotEdge
Remarks:
Altitude:
(Current/Filed)
13,000ft
Speed:
(Current/Filed)
120kts
Departed: 15-Nov-20 11:48 AM
Arrived: 15-Nov-20 01:41 PM
Distance/Time
Traveled:
193nm/1:53
Distance/Time
To Go:
Arrived

Flight Plot

Page will automatically refresh every two minutes.

Flight plan parsing failed; only flown route is shown


Map Options




Map Legend


Flown Route
Filed Route
Departure Airport
Arrival Airport
Navaid (VOR, NDB)
Fix

Horizontal Profiles

Position Reports

Time Latitude Longitude Heading Altitude Ground
Speed
15-Nov-20 11:22 34.196224 -118.367802 1 721ft 0kts
15-Nov-20 11:23 34.196224 -118.367802 1 721ft 0kts
15-Nov-20 11:24 34.196224 -118.367802 1 721ft 0kts
15-Nov-20 11:25 34.196224 -118.367802 1 721ft 0kts
15-Nov-20 11:26 34.196224 -118.367802 1 721ft 0kts
15-Nov-20 11:27 34.196224 -118.367802 1 721ft 0kts
15-Nov-20 11:28 34.196224 -118.367802 1 721ft 0kts
15-Nov-20 11:29 34.196224 -118.367802 1 721ft 0kts
15-Nov-20 11:30 34.196224 -118.367802 1 721ft 0kts
15-Nov-20 11:31 34.196224 -118.367802 1 721ft 0kts
15-Nov-20 11:32 34.196224 -118.367802 1 721ft 0kts
15-Nov-20 11:33 34.196224 -118.367802 1 721ft 0kts
15-Nov-20 11:34 34.196224 -118.367802 1 721ft 0kts
15-Nov-20 11:35 34.196224 -118.367802 1 721ft 0kts
15-Nov-20 11:36 34.196224 -118.367802 1 721ft 0kts
15-Nov-20 11:37 34.196224 -118.367802 1 721ft 0kts
15-Nov-20 11:38 34.196224 -118.367802 1 721ft 0kts
15-Nov-20 11:39 34.196224 -118.367802 1 721ft 0kts
15-Nov-20 11:40 34.196224 -118.367802 1 721ft 0kts
15-Nov-20 11:41 34.196224 -118.367802 1 721ft 0kts
15-Nov-20 11:42 34.196692 -118.367507 90 722ft 3kts
15-Nov-20 11:43 34.196939 -118.368070 273 723ft 7kts
15-Nov-20 11:44 34.197137 -118.368950 335 724ft 0kts
15-Nov-20 11:45 34.197508 -118.369033 1 725ft 9kts
15-Nov-20 11:46 34.197906 -118.367594 92 725ft 36kts
15-Nov-20 11:47 34.196521 -118.344639 129 1424ft 83kts
15-Nov-20 11:48 34.177298 -118.352759 225 2343ft 86kts
15-Nov-20 11:49 34.160070 -118.373137 225 3216ft 88kts
15-Nov-20 11:50 34.155829 -118.396226 329 4029ft 82kts
15-Nov-20 11:51 34.177816 -118.403402 347 4810ft 82kts
15-Nov-20 11:52 34.200053 -118.409683 347 5543ft 82kts
15-Nov-20 11:53 34.222299 -118.415903 347 6229ft 82kts
15-Nov-20 11:54 34.244669 -118.422134 347 6876ft 82kts
15-Nov-20 11:55 34.266970 -118.428340 347 7482ft 82kts
15-Nov-20 11:56 34.289281 -118.434548 347 8052ft 82kts
15-Nov-20 11:57 34.311581 -118.440756 347 8589ft 82kts
15-Nov-20 11:58 34.333934 -118.446983 347 9095ft 82kts
15-Nov-20 11:59 34.356344 -118.453236 346 9605ft 83kts
15-Nov-20 12:00 34.378748 -118.457743 20 10146ft 85kts
15-Nov-20 12:01 34.396086 -118.436833 41 10653ft 89kts
15-Nov-20 12:02 34.412253 -118.413182 44 11050ft 99kts
15-Nov-20 12:03 34.431124 -118.383900 45 11233ft 109kts
15-Nov-20 12:04 34.449066 -118.355472 45 11626ft 104kts
15-Nov-20 12:05 34.466375 -118.327959 44 12023ft 101kts
15-Nov-20 12:06 34.483261 -118.301081 44 12419ft 99kts
15-Nov-20 12:07 34.499866 -118.274619 44 12815ft 97kts
15-Nov-20 12:08 34.516385 -118.248335 44 13108ft 105kts
15-Nov-20 12:09 34.535571 -118.217668 45 13115ft 119kts
15-Nov-20 12:10 34.555806 -118.185207 46 13122ft 121kts
15-Nov-20 12:11 34.576189 -118.152537 46 13124ft 121kts
15-Nov-20 12:13 34.596647 -118.119741 46 13125ft 122kts
15-Nov-20 12:14 34.617127 -118.086887 46 13127ft 122kts
15-Nov-20 12:15 34.632053 -118.049782 72 13125ft 129kts
15-Nov-20 12:16 34.637568 -118.006552 74 13122ft 129kts
15-Nov-20 12:17 34.642504 -117.962996 75 13118ft 130kts
15-Nov-20 12:18 34.647278 -117.919613 75 13114ft 130kts
15-Nov-20 12:19 34.652046 -117.875891 75 13110ft 130kts
15-Nov-20 12:20 34.656767 -117.832394 75 13105ft 130kts
15-Nov-20 12:21 34.661472 -117.788895 75 13105ft 130kts
15-Nov-20 12:22 34.668891 -117.746342 65 13105ft 127kts
15-Nov-20 12:23 34.679262 -117.705224 65 13105ft 127kts
15-Nov-20 12:24 34.689745 -117.664214 65 13106ft 127kts
15-Nov-20 12:25 34.700218 -117.623312 65 13107ft 127kts
15-Nov-20 12:26 34.710704 -117.582326 65 13109ft 127kts
15-Nov-20 12:27 34.721211 -117.541197 65 13109ft 127kts
15-Nov-20 12:27 34.729929 -117.507024 65 13109ft 127kts
15-Nov-20 12:29 34.742101 -117.459233 65 13109ft 127kts
15-Nov-20 12:29 34.750809 -117.424993 65 13109ft 127kts
15-Nov-20 12:31 34.762985 -117.377037 65 13109ft 127kts
15-Nov-20 12:31 34.771681 -117.342735 65 13108ft 127kts
15-Nov-20 12:32 34.782055 -117.301756 65 13108ft 127kts
15-Nov-20 12:33 34.792431 -117.260706 65 13108ft 127kts
15-Nov-20 12:34 34.802832 -117.219486 65 13108ft 127kts
15-Nov-20 12:36 34.814890 -117.171618 65 13108ft 127kts
15-Nov-20 12:36 34.823525 -117.137282 65 13108ft 127kts
15-Nov-20 12:37 34.833842 -117.096217 66 13108ft 126kts
15-Nov-20 12:38 34.844055 -117.055501 67 13108ft 125kts
15-Nov-20 12:39 34.854137 -117.015241 68 13108ft 123kts
15-Nov-20 12:40 34.864097 -116.975405 68 13108ft 122kts
15-Nov-20 12:41 34.873973 -116.935844 69 13108ft 122kts
15-Nov-20 12:42 34.884071 -116.895310 70 13026ft 124kts
15-Nov-20 12:43 34.894013 -116.855290 70 13026ft 123kts
15-Nov-20 12:44 34.903948 -116.815276 69 13026ft 123kts
15-Nov-20 12:45 34.913971 -116.774863 69 13026ft 124kts
15-Nov-20 12:46 34.924016 -116.734307 69 13026ft 126kts
15-Nov-20 12:47 34.934204 -116.693101 68 13026ft 127kts
15-Nov-20 12:48 34.944493 -116.651427 68 13026ft 129kts
15-Nov-20 12:49 34.954922 -116.609112 69 13027ft 131kts
15-Nov-20 12:50 34.967738 -116.567403 58 13027ft 131kts
15-Nov-20 12:51 34.985136 -116.527622 57 13028ft 134kts
15-Nov-20 12:52 35.003107 -116.487077 59 13028ft 137kts
15-Nov-20 12:53 35.021549 -116.445533 60 13029ft 140kts
15-Nov-20 12:54 35.040180 -116.403530 62 13030ft 141kts
15-Nov-20 12:55 35.058838 -116.361351 62 13030ft 141kts
15-Nov-20 12:56 35.077502 -116.319168 63 13028ft 141kts
15-Nov-20 12:57 35.096204 -116.276852 63 13028ft 141kts
15-Nov-20 12:58 35.114764 -116.234805 63 13025ft 140kts
15-Nov-20 12:59 35.133259 -116.192854 63 13026ft 140kts
15-Nov-20 13:00 35.151742 -116.150879 63 13026ft 140kts
15-Nov-20 13:01 35.170165 -116.108988 63 13026ft 140kts
15-Nov-20 13:02 35.188627 -116.066958 63 13026ft 140kts
15-Nov-20 13:03 35.207194 -116.024687 64 13002ft 142kts
15-Nov-20 13:04 35.225813 -115.982153 64 12999ft 141kts
15-Nov-20 13:05 35.244313 -115.939868 64 12999ft 141kts
15-Nov-20 13:06 35.262754 -115.897674 64 13002ft 140kts
15-Nov-20 13:07 35.281344 -115.855085 64 13004ft 141kts
15-Nov-20 13:08 35.299842 -115.812656 64 13009ft 140kts
15-Nov-20 13:09 35.321691 -115.773011 49 13017ft 142kts
15-Nov-20 13:10 35.348321 -115.737146 48 13024ft 142kts
15-Nov-20 13:11 35.375340 -115.701057 48 12887ft 150kts
15-Nov-20 13:12 35.403987 -115.662761 48 12391ft 152kts
15-Nov-20 13:13 35.432190 -115.625000 48 11677ft 142kts
15-Nov-20 13:14 35.458849 -115.589289 46 10884ft 145kts
15-Nov-20 13:15 35.486243 -115.552606 45 10096ft 145kts
15-Nov-20 13:16 35.510877 -115.519677 45 10041ft 131kts
15-Nov-20 13:17 35.537048 -115.484689 45 9949ft 142kts
15-Nov-20 13:18 35.563451 -115.449145 45 9457ft 140kts
15-Nov-20 13:19 35.589853 -115.413669 44 8968ft 141kts
15-Nov-20 13:20 35.616271 -115.378136 44 8476ft 140kts
15-Nov-20 13:21 35.642430 -115.342925 44 8042ft 134kts
15-Nov-20 13:22 35.666808 -115.310111 44 8035ft 128kts
15-Nov-20 13:23 35.690994 -115.277511 44 8036ft 130kts
15-Nov-20 13:24 35.715553 -115.244344 44 8036ft 131kts
15-Nov-20 13:25 35.740222 -115.211001 44 8036ft 132kts
15-Nov-20 13:26 35.771451 -115.192137 11 8035ft 127kts
15-Nov-20 13:27 35.805303 -115.180167 11 8033ft 126kts
15-Nov-20 13:28 35.839092 -115.168217 11 8031ft 126kts
15-Nov-20 13:29 35.872792 -115.156315 11 8029ft 126kts
15-Nov-20 13:30 35.906410 -115.144465 11 8027ft 125kts
15-Nov-20 13:31 35.939878 -115.132696 11 8025ft 125kts
15-Nov-20 13:32 35.973703 -115.124938 1 8024ft 123kts
15-Nov-20 13:33 36.007591 -115.120749 2 7992ft 115kts
15-Nov-20 13:34 36.036284 -115.117101 2 7184ft 86kts
15-Nov-20 13:35 36.058944 -115.112269 13 6083ft 80kts
15-Nov-20 13:36 36.080148 -115.105660 12 5343ft 82kts
15-Nov-20 13:37 36.102413 -115.101268 338 4530ft 83kts
15-Nov-20 13:38 36.116947 -115.124387 290 3765ft 87kts
15-Nov-20 13:39 36.110898 -115.149854 208 2633ft 83kts
15-Nov-20 13:40 36.093292 -115.160073 202 2107ft 40kts
15-Nov-20 13:41 36.089340 -115.163315 291 2128ft 0kts
15-Nov-20 13:42 36.089402 -115.163478 296 2128ft 5kts
15-Nov-20 13:43 36.090518 -115.164190 344 2128ft 8kts

Navigation Log

Ident Type
Flight plan parsing failed, navigation log unavailable